sensor_id;sensor_type;location;lat;lon;timestamp;temperature;humidity
69944;DHT22;57257;48.408;-4.498;2023-04-03T00:00:17;12.27;65.33
69944;DHT22;57257;48.408;-4.498;2023-04-03T00:02:42;12.30;65.30
69944;DHT22;57257;48.408;-4.498;2023-04-03T00:05:08;12.29;65.32
69944;DHT22;57257;48.408;-4.498;2023-04-03T00:07:34;12.30;65.21
69944;DHT22;57257;48.408;-4.498;2023-04-03T00:09:59;12.30;65.10
69944;DHT22;57257;48.408;-4.498;2023-04-03T00:12:25;12.27;65.16
69944;DHT22;57257;48.408;-4.498;2023-04-03T00:14:50;12.29;64.77
69944;DHT22;57257;48.408;-4.498;2023-04-03T00:17:16;12.29;64.61
69944;DHT22;57257;48.408;-4.498;2023-04-03T00:19:41;12.27;64.53
69944;DHT22;57257;48.408;-4.498;2023-04-03T00:22:07;12.32;64.56
69944;DHT22;57257;48.408;-4.498;2023-04-03T00:24:32;12.29;64.58
69944;DHT22;57257;48.408;-4.498;2023-04-03T00:26:57;12.27;64.41
69944;DHT22;57257;48.408;-4.498;2023-04-03T00:29:23;12.30;64.46
69944;DHT22;57257;48.408;-4.498;2023-04-03T00:31:48;12.30;64.58
69944;DHT22;57257;48.408;-4.498;2023-04-03T00:34:14;12.33;64.42
69944;DHT22;57257;48.408;-4.498;2023-04-03T00:36:39;12.27;64.23
69944;DHT22;57257;48.408;-4.498;2023-04-03T00:39:05;12.23;64.24
69944;DHT22;57257;48.408;-4.498;2023-04-03T00:41:31;12.26;64.12
69944;DHT22;57257;48.408;-4.498;2023-04-03T00:43:57;12.24;64.10
69944;DHT22;57257;48.408;-4.498;2023-04-03T00:46:22;12.29;64.06
69944;DHT22;57257;48.408;-4.498;2023-04-03T00:48:48;12.29;64.01
69944;DHT22;57257;48.408;-4.498;2023-04-03T00:51:19;12.27;63.66
69944;DHT22;57257;48.408;-4.498;2023-04-03T00:53:50;12.27;63.34
69944;DHT22;57257;48.408;-4.498;2023-04-03T00:56:18;12.29;63.53
69944;DHT22;57257;48.408;-4.498;2023-04-03T00:58:51;12.30;63.43
69944;DHT22;57257;48.408;-4.498;2023-04-03T01:01:21;12.30;62.95
69944;DHT22;57257;48.408;-4.498;2023-04-03T01:03:48;12.27;62.68
69944;DHT22;57257;48.408;-4.498;2023-04-03T01:06:16;12.29;62.98
69944;DHT22;57257;48.408;-4.498;2023-04-03T01:08:43;12.29;63.04
69944;DHT22;57257;48.408;-4.498;2023-04-03T01:11:09;12.32;63.03
69944;DHT22;57257;48.408;-4.498;2023-04-03T01:13:34;12.34;63.05
69944;DHT22;57257;48.408;-4.498;2023-04-03T01:16:03;12.34;62.98
69944;DHT22;57257;48.408;-4.498;2023-04-03T01:18:29;12.36;63.09
69944;DHT22;57257;48.408;-4.498;2023-04-03T01:23:27;12.34;62.90
69944;DHT22;57257;48.408;-4.498;2023-04-03T01:25:55;12.29;62.67
69944;DHT22;57257;48.408;-4.498;2023-04-03T01:28:27;12.20;62.61
69944;DHT22;57257;48.408;-4.498;2023-04-03T01:33:25;12.10;62.63
69944;DHT22;57257;48.408;-4.498;2023-04-03T01:35:50;12.09;62.72
69944;DHT22;57257;48.408;-4.498;2023-04-03T01:38:16;12.07;62.80
69944;DHT22;57257;48.408;-4.498;2023-04-03T01:40:42;12.04;62.84
69944;DHT22;57257;48.408;-4.498;2023-04-03T01:43:08;12.00;62.78
69944;DHT22;57257;48.408;-4.498;2023-04-03T01:45:33;11.99;62.87
69944;DHT22;57257;48.408;-4.498;2023-04-03T01:47:59;11.97;62.87
69944;DHT22;57257;48.408;-4.498;2023-04-03T01:50:24;11.93;62.93
69944;DHT22;57257;48.408;-4.498;2023-04-03T01:52:50;11.90;62.90
69944;DHT22;57257;48.408;-4.498;2023-04-03T01:55:15;11.89;63.00
69944;DHT22;57257;48.408;-4.498;2023-04-03T01:57:41;11.86;63.03
69944;DHT22;57257;48.408;-4.498;2023-04-03T02:00:07;11.82;63.15
69944;DHT22;57257;48.408;-4.498;2023-04-03T02:02:33;11.79;63.18
69944;DHT22;57257;48.408;-4.498;2023-04-03T02:04:58;11.79;63.22
69944;DHT22;57257;48.408;-4.498;2023-04-03T02:07:24;11.75;63.23
69944;DHT22;57257;48.408;-4.498;2023-04-03T02:09:49;11.69;63.27
69944;DHT22;57257;48.408;-4.498;2023-04-03T02:12:15;11.68;63.36
69944;DHT22;57257;48.408;-4.498;2023-04-03T02:14:40;11.66;63.37
69944;DHT22;57257;48.408;-4.498;2023-04-03T02:17:06;11.61;63.49
69944;DHT22;57257;48.408;-4.498;2023-04-03T02:19:34;11.58;63.54
69944;DHT22;57257;48.408;-4.498;2023-04-03T02:22:01;11.54;63.63
69944;DHT22;57257;48.408;-4.498;2023-04-03T02:24:26;11.49;63.73
69944;DHT22;57257;48.408;-4.498;2023-04-03T02:26:52;11.48;63.82
69944;DHT22;57257;48.408;-4.498;2023-04-03T02:29:18;11.46;63.82
69944;DHT22;57257;48.408;-4.498;2023-04-03T02:31:43;11.40;63.91
69944;DHT22;57257;48.408;-4.498;2023-04-03T02:34:09;11.43;64.03
69944;DHT22;57257;48.408;-4.498;2023-04-03T02:36:34;11.42;64.01
69944;DHT22;57257;48.408;-4.498;2023-04-03T02:39:00;11.43;64.14
69944;DHT22;57257;48.408;-4.498;2023-04-03T02:41:25;11.40;64.14
69944;DHT22;57257;48.408;-4.498;2023-04-03T02:43:57;11.43;64.12
69944;DHT22;57257;48.408;-4.498;2023-04-03T02:46:22;11.43;64.22
69944;DHT22;57257;48.408;-4.498;2023-04-03T02:48:48;11.45;64.16
69944;DHT22;57257;48.408;-4.498;2023-04-03T02:51:13;11.46;64.12
69944;DHT22;57257;48.408;-4.498;2023-04-03T02:53:38;11.46;64.07
69944;DHT22;57257;48.408;-4.498;2023-04-03T02:56:04;11.49;64.00
69944;DHT22;57257;48.408;-4.498;2023-04-03T02:58:30;11.48;63.84
69944;DHT22;57257;48.408;-4.498;2023-04-03T03:00:55;11.46;63.63
69944;DHT22;57257;48.408;-4.498;2023-04-03T03:03:21;11.42;63.63
69944;DHT22;57257;48.408;-4.498;2023-04-03T03:06:23;11.45;63.64
69944;DHT22;57257;48.408;-4.498;2023-04-03T03:08:49;11.45;63.60
69944;DHT22;57257;48.408;-4.498;2023-04-03T03:11:15;11.42;63.41
69944;DHT22;57257;48.408;-4.498;2023-04-03T03:13:40;11.45;63.40
69944;DHT22;57257;48.408;-4.498;2023-04-03T03:16:06;11.36;63.06
69944;DHT22;57257;48.408;-4.498;2023-04-03T03:18:32;11.32;63.06
69944;DHT22;57257;48.408;-4.498;2023-04-03T03:21:00;11.29;63.15
69944;DHT22;57257;48.408;-4.498;2023-04-03T03:23:26;11.32;62.82
69944;DHT22;57257;48.408;-4.498;2023-04-03T03:25:58;11.28;62.97
69944;DHT22;57257;48.408;-4.498;2023-04-03T03:28:24;11.26;62.95
69944;DHT22;57257;48.408;-4.498;2023-04-03T03:30:50;11.28;62.98
69944;DHT22;57257;48.408;-4.498;2023-04-03T03:33:16;11.28;62.97
69944;DHT22;57257;48.408;-4.498;2023-04-03T03:35:42;11.29;62.94
69944;DHT22;57257;48.408;-4.498;2023-04-03T03:38:08;11.28;62.84
69944;DHT22;57257;48.408;-4.498;2023-04-03T03:40:34;11.24;62.80
69944;DHT22;57257;48.408;-4.498;2023-04-03T03:42:59;11.16;62.47
69944;DHT22;57257;48.408;-4.498;2023-04-03T03:45:25;11.14;62.66
69944;DHT22;57257;48.408;-4.498;2023-04-03T03:47:50;11.18;62.69
69944;DHT22;57257;48.408;-4.498;2023-04-03T03:50:16;11.19;62.49
69944;DHT22;57257;48.408;-4.498;2023-04-03T03:52:41;11.21;62.62
69944;DHT22;57257;48.408;-4.498;2023-04-03T03:55:07;11.18;62.48
69944;DHT22;57257;48.408;-4.498;2023-04-03T03:57:33;11.21;62.15
69944;DHT22;57257;48.408;-4.498;2023-04-03T03:59:58;11.15;61.98
69944;DHT22;57257;48.408;-4.498;2023-04-03T04:02:24;11.14;62.16
69944;DHT22;57257;48.408;-4.498;2023-04-03T04:04:49;11.15;61.87
69944;DHT22;57257;48.408;-4.498;2023-04-03T04:07:15;11.12;61.51
69944;DHT22;57257;48.408;-4.498;2023-04-03T04:09:40;11.05;61.76
69944;DHT22;57257;48.408;-4.498;2023-04-03T04:12:06;11.05;61.61
69944;DHT22;57257;48.408;-4.498;2023-04-03T04:14:31;11.04;61.48
69944;DHT22;57257;48.408;-4.498;2023-04-03T04:16:57;11.04;61.24
69944;DHT22;57257;48.408;-4.498;2023-04-03T04:19:22;11.05;61.40
69944;DHT22;57257;48.408;-4.498;2023-04-03T04:21:48;11.04;61.45
69944;DHT22;57257;48.408;-4.498;2023-04-03T04:24:13;11.07;61.57
69944;DHT22;57257;48.408;-4.498;2023-04-03T04:26:39;11.08;61.10
69944;DHT22;57257;48.408;-4.498;2023-04-03T04:29:04;11.11;61.19
69944;DHT22;57257;48.408;-4.498;2023-04-03T04:31:29;11.12;61.36
69944;DHT22;57257;48.408;-4.498;2023-04-03T04:33:55;11.16;61.19
69944;DHT22;57257;48.408;-4.498;2023-04-03T04:36:20;11.15;61.05
69944;DHT22;57257;48.408;-4.498;2023-04-03T04:38:46;11.12;61.10
69944;DHT22;57257;48.408;-4.498;2023-04-03T04:41:11;11.15;61.20
69944;DHT22;57257;48.408;-4.498;2023-04-03T04:43:37;11.15;61.29
69944;DHT22;57257;48.408;-4.498;2023-04-03T04:46:08;11.16;61.36
69944;DHT22;57257;48.408;-4.498;2023-04-03T04:48:34;11.14;61.29
69944;DHT22;57257;48.408;-4.498;2023-04-03T04:51:01;11.12;61.48
69944;DHT22;57257;48.408;-4.498;2023-04-03T04:53:26;11.12;61.52
69944;DHT22;57257;48.408;-4.498;2023-04-03T04:55:52;11.15;61.50
69944;DHT22;57257;48.408;-4.498;2023-04-03T04:58:18;11.16;61.41
69944;DHT22;57257;48.408;-4.498;2023-04-03T05:00:44;11.18;61.59
69944;DHT22;57257;48.408;-4.498;2023-04-03T05:03:09;11.16;61.56
69944;DHT22;57257;48.408;-4.498;2023-04-03T05:05:35;11.18;61.65
69944;DHT22;57257;48.408;-4.498;2023-04-03T05:08:01;11.18;61.33
69944;DHT22;57257;48.408;-4.498;2023-04-03T05:10:27;11.19;61.48
69944;DHT22;57257;48.408;-4.498;2023-04-03T05:12:52;11.15;61.38
69944;DHT22;57257;48.408;-4.498;2023-04-03T05:15:18;11.07;61.36
69944;DHT22;57257;48.408;-4.498;2023-04-03T05:17:43;11.05;61.57
69944;DHT22;57257;48.408;-4.498;2023-04-03T05:20:09;11.00;61.71
69944;DHT22;57257;48.408;-4.498;2023-04-03T05:22:35;10.98;61.67
69944;DHT22;57257;48.408;-4.498;2023-04-03T05:25:00;10.90;61.73
69944;DHT22;57257;48.408;-4.498;2023-04-03T05:27:26;10.90;61.79
69944;DHT22;57257;48.408;-4.498;2023-04-03T05:29:54;10.85;61.95
69944;DHT22;57257;48.408;-4.498;2023-04-03T05:32:19;10.83;61.99
69944;DHT22;57257;48.408;-4.498;2023-04-03T05:34:45;10.78;61.90
69944;DHT22;57257;48.408;-4.498;2023-04-03T05:37:11;10.77;61.86
69944;DHT22;57257;48.408;-4.498;2023-04-03T05:39:36;10.75;61.88
69944;DHT22;57257;48.408;-4.498;2023-04-03T05:42:03;10.73;61.96
69944;DHT22;57257;48.408;-4.498;2023-04-03T05:44:29;10.70;62.11
69944;DHT22;57257;48.408;-4.498;2023-04-03T05:46:54;10.71;61.96
69944;DHT22;57257;48.408;-4.498;2023-04-03T05:49:20;10.68;62.12
69944;DHT22;57257;48.408;-4.498;2023-04-03T05:51:45;10.70;62.03
69944;DHT22;57257;48.408;-4.498;2023-04-03T05:54:21;10.74;61.99
69944;DHT22;57257;48.408;-4.498;2023-04-03T05:56:49;10.70;62.02
69944;DHT22;57257;48.408;-4.498;2023-04-03T05:59:15;10.70;61.97
69944;DHT22;57257;48.408;-4.498;2023-04-03T06:01:41;10.73;61.97
69944;DHT22;57257;48.408;-4.498;2023-04-03T06:04:06;10.74;61.89
69944;DHT22;57257;48.408;-4.498;2023-04-03T06:06:47;10.75;61.89
69944;DHT22;57257;48.408;-4.498;2023-04-03T06:09:14;10.81;61.79
69944;DHT22;57257;48.408;-4.498;2023-04-03T06:11:40;10.80;61.81
69944;DHT22;57257;48.408;-4.498;2023-04-03T06:14:08;10.81;61.76
69944;DHT22;57257;48.408;-4.498;2023-04-03T06:16:34;10.94;61.82
69944;DHT22;57257;48.408;-4.498;2023-04-03T06:18:59;11.05;61.63
69944;DHT22;57257;48.408;-4.498;2023-04-03T06:21:26;11.15;61.43
69944;DHT22;57257;48.408;-4.498;2023-04-03T06:23:51;11.25;61.20
69944;DHT22;57257;48.408;-4.498;2023-04-03T06:26:17;11.38;61.03
69944;DHT22;57257;48.408;-4.498;2023-04-03T06:28:42;11.51;60.80
69944;DHT22;57257;48.408;-4.498;2023-04-03T06:31:08;11.63;60.79
69944;DHT22;57257;48.408;-4.498;2023-04-03T06:33:34;11.76;60.45
69944;DHT22;57257;48.408;-4.498;2023-04-03T06:36:02;11.79;60.32
69944;DHT22;57257;48.408;-4.498;2023-04-03T06:38:28;11.79;60.06
69944;DHT22;57257;48.408;-4.498;2023-04-03T06:40:54;11.83;60.10
69944;DHT22;57257;48.408;-4.498;2023-04-03T06:43:19;11.97;60.10
69944;DHT22;57257;48.408;-4.498;2023-04-03T06:45:45;12.13;59.64
69944;DHT22;57257;48.408;-4.498;2023-04-03T06:48:12;12.33;59.33
69944;DHT22;57257;48.408;-4.498;2023-04-03T06:50:38;12.41;58.86
69944;DHT22;57257;48.408;-4.498;2023-04-03T06:53:03;12.51;58.56
69944;DHT22;57257;48.408;-4.498;2023-04-03T06:55:29;12.57;58.28
69944;DHT22;57257;48.408;-4.498;2023-04-03T06:57:54;12.43;58.32
69944;DHT22;57257;48.408;-4.498;2023-04-03T07:00:20;12.24;58.38
69944;DHT22;57257;48.408;-4.498;2023-04-03T07:02:46;12.10;58.72
69944;DHT22;57257;48.408;-4.498;2023-04-03T07:05:11;12.00;58.68
69944;DHT22;57257;48.408;-4.498;2023-04-03T07:07:37;11.94;58.66
69944;DHT22;57257;48.408;-4.498;2023-04-03T07:10:04;12.19;59.11
69944;DHT22;57257;48.408;-4.498;2023-04-03T07:12:30;12.57;58.13
69944;DHT22;57257;48.408;-4.498;2023-04-03T07:14:56;12.88;57.27
69944;DHT22;57257;48.408;-4.498;2023-04-03T07:17:21;13.11;56.79
69944;DHT22;57257;48.408;-4.498;2023-04-03T07:19:46;13.22;55.48
69944;DHT22;57257;48.408;-4.498;2023-04-03T07:22:12;13.28;55.32
69944;DHT22;57257;48.408;-4.498;2023-04-03T07:24:38;13.45;55.18
69944;DHT22;57257;48.408;-4.498;2023-04-03T07:27:03;13.56;54.62
69944;DHT22;57257;48.408;-4.498;2023-04-03T07:29:29;13.69;54.50
69944;DHT22;57257;48.408;-4.498;2023-04-03T07:31:55;13.84;54.02
69944;DHT22;57257;48.408;-4.498;2023-04-03T07:34:21;13.99;54.02
69944;DHT22;57257;48.408;-4.498;2023-04-03T07:36:46;14.12;53.51
69944;DHT22;57257;48.408;-4.498;2023-04-03T07:39:12;14.30;53.49
69944;DHT22;57257;48.408;-4.498;2023-04-03T07:41:37;14.40;52.69
69944;DHT22;57257;48.408;-4.498;2023-04-03T07:44:03;14.34;52.17
69944;DHT22;57257;48.408;-4.498;2023-04-03T07:46:29;14.35;52.12
69944;DHT22;57257;48.408;-4.498;2023-04-03T07:48:55;14.41;52.50
69944;DHT22;57257;48.408;-4.498;2023-04-03T07:51:20;14.49;51.48
69944;DHT22;57257;48.408;-4.498;2023-04-03T07:53:46;14.45;51.23
69944;DHT22;57257;48.408;-4.498;2023-04-03T07:56:11;14.44;50.81
69944;DHT22;57257;48.408;-4.498;2023-04-03T07:58:37;14.42;51.02
69944;DHT22;57257;48.408;-4.498;2023-04-03T08:01:03;14.54;51.67
69944;DHT22;57257;48.408;-4.498;2023-04-03T08:03:28;14.57;50.79
69944;DHT22;57257;48.408;-4.498;2023-04-03T08:05:54;14.68;51.02
69944;DHT22;57257;48.408;-4.498;2023-04-03T08:08:21;14.82;50.93
69944;DHT22;57257;48.408;-4.498;2023-04-03T08:10:51;14.82;49.36
69944;DHT22;57257;48.408;-4.498;2023-04-03T08:13:18;14.84;49.15
69944;DHT22;57257;48.408;-4.498;2023-04-03T08:15:44;14.88;49.06
69944;DHT22;57257;48.408;-4.498;2023-04-03T08:18:10;15.05;49.13
69944;DHT22;57257;48.408;-4.498;2023-04-03T08:20:37;15.13;48.60
69944;DHT22;57257;48.408;-4.498;2023-04-03T08:23:03;15.19;48.00
69944;DHT22;57257;48.408;-4.498;2023-04-03T08:25:29;15.18;48.42
69944;DHT22;57257;48.408;-4.498;2023-04-03T08:27:55;15.13;47.69
69944;DHT22;57257;48.408;-4.498;2023-04-03T08:30:20;15.09;48.61
69944;DHT22;57257;48.408;-4.498;2023-04-03T08:32:46;15.05;47.62
69944;DHT22;57257;48.408;-4.498;2023-04-03T08:35:11;14.98;47.74
69944;DHT22;57257;48.408;-4.498;2023-04-03T08:37:38;14.92;47.19
69944;DHT22;57257;48.408;-4.498;2023-04-03T08:40:06;14.89;47.92
69944;DHT22;57257;48.408;-4.498;2023-04-03T08:47:59;15.28;48.29
69944;DHT22;57257;48.408;-4.498;2023-04-03T08:50:47;15.38;47.92
69944;DHT22;57257;48.408;-4.498;2023-04-03T08:53:17;15.22;48.02
69944;DHT22;57257;48.408;-4.498;2023-04-03T08:55:46;15.26;47.63
69944;DHT22;57257;48.408;-4.498;2023-04-03T08:58:29;15.30;47.83
69944;DHT22;57257;48.408;-4.498;2023-04-03T09:00:59;15.36;47.74
69944;DHT22;57257;48.408;-4.498;2023-04-03T09:03:29;15.49;47.59
69944;DHT22;57257;48.408;-4.498;2023-04-03T09:06:12;15.56;47.60
69944;DHT22;57257;48.408;-4.498;2023-04-03T09:09:15;15.56;47.50
69944;DHT22;57257;48.408;-4.498;2023-04-03T09:20:20;15.67;46.56
69944;DHT22;57257;48.408;-4.498;2023-04-03T09:22:46;15.69;46.51
69944;DHT22;57257;48.408;-4.498;2023-04-03T09:25:17;15.69;46.37
69944;DHT22;57257;48.408;-4.498;2023-04-03T09:27:44;15.74;46.58
69944;DHT22;57257;48.408;-4.498;2023-04-03T09:30:23;15.76;46.30
69944;DHT22;57257;48.408;-4.498;2023-04-03T09:32:52;15.74;45.91
69944;DHT22;57257;48.408;-4.498;2023-04-03T09:35:32;15.70;46.02
69944;DHT22;57257;48.408;-4.498;2023-04-03T09:40:38;15.84;46.08
69944;DHT22;57257;48.408;-4.498;2023-04-03T09:43:31;15.89;46.15
69944;DHT22;57257;48.408;-4.498;2023-04-03T09:46:24;15.84;46.08
69944;DHT22;57257;48.408;-4.498;2023-04-03T09:48:52;15.91;46.28
69944;DHT22;57257;48.408;-4.498;2023-04-03T09:51:25;16.03;45.83
69944;DHT22;57257;48.408;-4.498;2023-04-03T09:53:51;16.00;44.44
69944;DHT22;57257;48.408;-4.498;2023-04-03T09:58:48;16.10;45.90
69944;DHT22;57257;48.408;-4.498;2023-04-03T10:01:31;16.14;44.85
69944;DHT22;57257;48.408;-4.498;2023-04-03T10:04:18;16.17;45.04
69944;DHT22;57257;48.408;-4.498;2023-04-03T10:06:46;16.22;44.86
69944;DHT22;57257;48.408;-4.498;2023-04-03T10:12:04;16.28;44.95
69944;DHT22;57257;48.408;-4.498;2023-04-03T10:14:32;16.29;44.99
69944;DHT22;57257;48.408;-4.498;2023-04-03T10:19:50;16.45;45.78
69944;DHT22;57257;48.408;-4.498;2023-04-03T10:27:54;16.58;45.23
69944;DHT22;57257;48.408;-4.498;2023-04-03T10:30:31;16.59;44.12
69944;DHT22;57257;48.408;-4.498;2023-04-03T10:32:59;16.58;44.30
69944;DHT22;57257;48.408;-4.498;2023-04-03T10:36:01;16.64;44.15
69944;DHT22;57257;48.408;-4.498;2023-04-03T10:38:33;16.67;44.02
69944;DHT22;57257;48.408;-4.498;2023-04-03T10:41:07;16.65;43.84
69944;DHT22;57257;48.408;-4.498;2023-04-03T10:46:28;16.85;44.22
69944;DHT22;57257;48.408;-4.498;2023-04-03T10:49:17;16.85;44.29
69944;DHT22;57257;48.408;-4.498;2023-04-03T10:51:56;16.82;44.20
69944;DHT22;57257;48.408;-4.498;2023-04-03T10:57:33;16.89;44.72
69944;DHT22;57257;48.408;-4.498;2023-04-03T11:00:05;16.89;44.03
69944;DHT22;57257;48.408;-4.498;2023-04-03T11:02:43;16.86;43.61
69944;DHT22;57257;48.408;-4.498;2023-04-03T11:05:21;16.95;44.32
69944;DHT22;57257;48.408;-4.498;2023-04-03T11:07:53;16.99;43.42
69944;DHT22;57257;48.408;-4.498;2023-04-03T11:10:23;17.01;44.28
69944;DHT22;57257;48.408;-4.498;2023-04-03T11:13:00;17.09;44.26
69944;DHT22;57257;48.408;-4.498;2023-04-03T11:15:29;17.09;43.80
69944;DHT22;57257;48.408;-4.498;2023-04-03T11:18:04;17.16;43.19
69944;DHT22;57257;48.408;-4.498;2023-04-03T11:20:32;17.13;43.37
69944;DHT22;57257;48.408;-4.498;2023-04-03T11:23:29;17.22;42.93
69944;DHT22;57257;48.408;-4.498;2023-04-03T11:26:04;17.16;43.31
69944;DHT22;57257;48.408;-4.498;2023-04-03T11:28:32;17.18;43.84
69944;DHT22;57257;48.408;-4.498;2023-04-03T11:36:50;17.18;42.72
69944;DHT22;57257;48.408;-4.498;2023-04-03T11:41:42;17.15;42.94
69944;DHT22;57257;48.408;-4.498;2023-04-03T11:44:36;17.26;42.78
69944;DHT22;57257;48.408;-4.498;2023-04-03T11:47:04;17.34;43.07
69944;DHT22;57257;48.408;-4.498;2023-04-03T11:49:59;17.40;43.75
69944;DHT22;57257;48.408;-4.498;2023-04-03T11:58:03;17.46;42.14
69944;DHT22;57257;48.408;-4.498;2023-04-03T12:32:58;18.32;40.08
69944;DHT22;57257;48.408;-4.498;2023-04-03T12:35:31;18.44;39.93
69944;DHT22;57257;48.408;-4.498;2023-04-03T12:46:47;18.71;39.81
69944;DHT22;57257;48.408;-4.498;2023-04-03T12:49:24;18.79;39.13
69944;DHT22;57257;48.408;-4.498;2023-04-03T12:51:52;18.83;40.20
69944;DHT22;57257;48.408;-4.498;2023-04-03T12:54:36;18.96;40.29
69944;DHT22;57257;48.408;-4.498;2023-04-03T12:57:13;19.06;40.04
69944;DHT22;57257;48.408;-4.498;2023-04-03T12:59:41;19.13;39.60
69944;DHT22;57257;48.408;-4.498;2023-04-03T13:02:27;19.19;40.38
69944;DHT22;57257;48.408;-4.498;2023-04-03T13:04:56;19.10;39.67
69944;DHT22;57257;48.408;-4.498;2023-04-03T13:07:31;18.98;40.39
69944;DHT22;57257;48.408;-4.498;2023-04-03T13:12:45;19.06;40.04
69944;DHT22;57257;48.408;-4.498;2023-04-03T13:17:42;19.23;40.54
69944;DHT22;57257;48.408;-4.498;2023-04-03T13:20:19;19.30;40.24
69944;DHT22;57257;48.408;-4.498;2023-04-03T13:25:24;19.14;40.29
69944;DHT22;57257;48.408;-4.498;2023-04-03T13:27:51;19.22;40.67
69944;DHT22;57257;48.408;-4.498;2023-04-03T13:30:29;19.38;40.34
69944;DHT22;57257;48.408;-4.498;2023-04-03T13:32:57;19.56;39.64
69944;DHT22;57257;48.408;-4.498;2023-04-03T13:38:01;19.82;39.00
69944;DHT22;57257;48.408;-4.498;2023-04-03T13:40:28;19.92;39.49
69944;DHT22;57257;48.408;-4.498;2023-04-03T13:43:05;20.09;39.31
69944;DHT22;57257;48.408;-4.498;2023-04-03T13:45:33;20.22;39.77
69944;DHT22;57257;48.408;-4.498;2023-04-03T13:48:20;20.36;39.21
69944;DHT22;57257;48.408;-4.498;2023-04-03T13:51:17;20.32;37.42
69944;DHT22;57257;48.408;-4.498;2023-04-03T13:53:47;20.12;38.31
69944;DHT22;57257;48.408;-4.498;2023-04-03T13:59:40;20.21;39.17
69944;DHT22;57257;48.408;-4.498;2023-04-03T14:02:15;20.43;39.38
69944;DHT22;57257;48.408;-4.498;2023-04-03T14:07:10;20.66;38.89
69944;DHT22;57257;48.408;-4.498;2023-04-03T14:09:36;20.71;38.66
69944;DHT22;57257;48.408;-4.498;2023-04-03T14:12:08;20.77;38.29
69944;DHT22;57257;48.408;-4.498;2023-04-03T14:14:37;20.82;38.00
69944;DHT22;57257;48.408;-4.498;2023-04-03T14:17:19;20.75;37.37
69944;DHT22;57257;48.408;-4.498;2023-04-03T14:19:46;20.56;37.51
69944;DHT22;57257;48.408;-4.498;2023-04-03T14:22:23;20.61;38.33
69944;DHT22;57257;48.408;-4.498;2023-04-03T14:24:50;20.76;37.99
69944;DHT22;57257;48.408;-4.498;2023-04-03T14:27:20;20.83;37.54
69944;DHT22;57257;48.408;-4.498;2023-04-03T14:29:47;20.93;37.25
69944;DHT22;57257;48.408;-4.498;2023-04-03T14:32:15;20.92;36.52
69944;DHT22;57257;48.408;-4.498;2023-04-03T14:34:41;20.93;37.28
69944;DHT22;57257;48.408;-4.498;2023-04-03T14:37:21;21.07;36.17
69944;DHT22;57257;48.408;-4.498;2023-04-03T14:39:48;21.02;36.58
69944;DHT22;57257;48.408;-4.498;2023-04-03T14:42:17;21.16;36.72
69944;DHT22;57257;48.408;-4.498;2023-04-03T14:44:43;21.40;36.19
69944;DHT22;57257;48.408;-4.498;2023-04-03T14:47:29;21.68;36.04
69944;DHT22;57257;48.408;-4.498;2023-04-03T14:49:55;21.92;35.80
69944;DHT22;57257;48.408;-4.498;2023-04-03T14:52:30;22.12;35.69
69944;DHT22;57257;48.408;-4.498;2023-04-03T14:54:56;22.45;35.44
69944;DHT22;57257;48.408;-4.498;2023-04-03T14:57:24;22.79;34.86
69944;DHT22;57257;48.408;-4.498;2023-04-03T14:59:50;23.06;34.07
69944;DHT22;57257;48.408;-4.498;2023-04-03T15:04:50;23.85;34.42
69944;DHT22;57257;48.408;-4.498;2023-04-03T15:07:15;24.60;33.10
69944;DHT22;57257;48.408;-4.498;2023-04-03T15:09:41;25.44;31.88
69944;DHT22;57257;48.408;-4.498;2023-04-03T15:12:08;26.18;31.15
69944;DHT22;57257;48.408;-4.498;2023-04-03T15:14:34;26.57;30.45
69944;DHT22;57257;48.408;-4.498;2023-04-03T15:16:59;26.93;28.78
69944;DHT22;57257;48.408;-4.498;2023-04-03T15:19:25;27.62;29.14
69944;DHT22;57257;48.408;-4.498;2023-04-03T15:21:50;28.17;27.76
69944;DHT22;57257;48.408;-4.498;2023-04-03T15:24:16;28.73;28.69
69944;DHT22;57257;48.408;-4.498;2023-04-03T15:26:41;29.66;27.71
69944;DHT22;57257;48.408;-4.498;2023-04-03T15:29:07;30.33;27.13
69944;DHT22;57257;48.408;-4.498;2023-04-03T15:31:32;31.07;25.86
69944;DHT22;57257;48.408;-4.498;2023-04-03T15:33:58;31.90;25.16
69944;DHT22;57257;48.408;-4.498;2023-04-03T15:36:23;32.71;25.21
69944;DHT22;57257;48.408;-4.498;2023-04-03T15:38:49;32.88;23.03
69944;DHT22;57257;48.408;-4.498;2023-04-03T15:41:14;32.80;23.41
69944;DHT22;57257;48.408;-4.498;2023-04-03T15:43:40;32.97;21.72
69944;DHT22;57257;48.408;-4.498;2023-04-03T15:46:05;32.84;22.50
69944;DHT22;57257;48.408;-4.498;2023-04-03T15:48:31;32.77;23.80
69944;DHT22;57257;48.408;-4.498;2023-04-03T15:50:57;33.04;24.08
69944;DHT22;57257;48.408;-4.498;2023-04-03T15:53:22;33.23;22.60
69944;DHT22;57257;48.408;-4.498;2023-04-03T15:55:48;33.35;22.89
69944;DHT22;57257;48.408;-4.498;2023-04-03T15:58:13;33.76;22.99
69944;DHT22;57257;48.408;-4.498;2023-04-03T16:00:39;33.64;21.21
69944;DHT22;57257;48.408;-4.498;2023-04-03T16:03:09;33.06;21.63
69944;DHT22;57257;48.408;-4.498;2023-04-03T16:05:37;32.08;23.12
69944;DHT22;57257;48.408;-4.498;2023-04-03T16:08:03;30.70;23.79
69944;DHT22;57257;48.408;-4.498;2023-04-03T16:10:30;29.03;25.06
69944;DHT22;57257;48.408;-4.498;2023-04-03T16:12:56;27.78;26.70
69944;DHT22;57257;48.408;-4.498;2023-04-03T16:15:22;26.49;28.04
69944;DHT22;57257;48.408;-4.498;2023-04-03T16:17:49;25.33;29.57
69944;DHT22;57257;48.408;-4.498;2023-04-03T16:20:15;24.49;30.64
69944;DHT22;57257;48.408;-4.498;2023-04-03T16:22:41;23.84;31.81
69944;DHT22;57257;48.408;-4.498;2023-04-03T16:25:08;23.31;32.65
69944;DHT22;57257;48.408;-4.498;2023-04-03T16:27:33;23.00;33.41
69944;DHT22;57257;48.408;-4.498;2023-04-03T16:30:00;22.59;33.92
69944;DHT22;57257;48.408;-4.498;2023-04-03T16:32:28;22.06;34.70
69944;DHT22;57257;48.408;-4.498;2023-04-03T16:34:54;21.82;35.15
69944;DHT22;57257;48.408;-4.498;2023-04-03T16:37:20;21.53;35.99
69944;DHT22;57257;48.408;-4.498;2023-04-03T16:39:46;21.36;36.15
69944;DHT22;57257;48.408;-4.498;2023-04-03T16:42:11;21.24;36.64
69944;DHT22;57257;48.408;-4.498;2023-04-03T16:44:37;21.03;36.90
69944;DHT22;57257;48.408;-4.498;2023-04-03T16:47:03;20.43;37.96
69944;DHT22;57257;48.408;-4.498;2023-04-03T16:49:28;19.95;38.63
69944;DHT22;57257;48.408;-4.498;2023-04-03T16:51:58;19.66;39.40
69944;DHT22;57257;48.408;-4.498;2023-04-03T16:54:24;19.53;39.57
69944;DHT22;57257;48.408;-4.498;2023-04-03T16:56:49;19.46;40.42
69944;DHT22;57257;48.408;-4.498;2023-04-03T16:59:15;19.19;40.77
69944;DHT22;57257;48.408;-4.498;2023-04-03T17:01:40;19.13;40.58
69944;DHT22;57257;48.408;-4.498;2023-04-03T17:04:06;19.06;40.78
69944;DHT22;57257;48.408;-4.498;2023-04-03T17:06:31;19.03;41.20
69944;DHT22;57257;48.408;-4.498;2023-04-03T17:08:57;18.96;41.36
69944;DHT22;57257;48.408;-4.498;2023-04-03T17:11:23;18.92;41.59
69944;DHT22;57257;48.408;-4.498;2023-04-03T17:13:48;18.91;41.79
69944;DHT22;57257;48.408;-4.498;2023-04-03T17:16:15;18.81;41.86